Time;durP1;ratioP1;P1;durP2;ratioP2;P2;SDS_P1;SDS_P2;PMS_P1;PMS_P2;Temp;Humidity;BMP_temperature;BMP_pressure;BME280_temperature;BME280_humidity;BME280_pressure;Samples;Min_cycle;Max_cycle;Signal;HPM_P1;HPM_P2
2022/11/16 00:01:04;;;;;;;48.78;13.70;;;;;;;6.98;100.00;98250.06;4402763;32;20038;-69
2022/11/16 00:03:32;;;;;;;38.58;12.60;;;;;;;7.20;100.00;98263.50;4400544;32;20092;-69
2022/11/16 00:06:02;;;;;;;41.35;13.32;;;;;;;7.16;100.00;98234.78;4415821;32;20038;-69
2022/11/16 00:08:30;;;;;;;53.00;15.70;;;;;;;7.41;100.00;98247.72;4417845;32;20046;-69
2022/11/16 00:11:11;;;;;;;58.78;17.55;;;;;;;6.75;100.00;98210.09;4422218;32;20056;-69
2022/11/16 00:13:39;;;;;;;46.03;17.52;;;;;;;6.75;100.00;98199.41;4432374;32;20849;-69
2022/11/16 00:16:06;;;;;;;52.40;16.33;;;;;;;7.03;100.00;98241.31;4399302;32;20035;-69
2022/11/16 00:18:33;;;;;;;44.13;16.52;;;;;;;6.99;100.00;98245.50;4408990;32;20162;-70
2022/11/16 00:20:59;;;;;;;49.22;16.65;;;;;;;6.85;100.00;98240.50;4414019;32;20026;-70
2022/11/16 00:23:37;;;;;;;49.75;14.60;;;;;;;6.78;100.00;98228.34;4367384;32;20093;-69
2022/11/16 00:26:05;;;;;;;43.22;14.27;;;;;;;7.14;100.00;98239.59;4355296;32;20049;-69
2022/11/16 00:28:32;;;;;;;48.50;13.77;;;;;;;7.15;100.00;98242.03;4355559;32;20063;-69
2022/11/16 00:31:03;;;;;;;59.33;15.00;;;;;;;7.11;100.00;98224.81;4352234;32;20033;-69
2022/11/16 00:33:32;;;;;;;52.53;15.68;;;;;;;7.08;100.00;98238.69;4355167;32;20060;-69
2022/11/16 00:36:07;;;;;;;53.58;14.70;;;;;;;6.27;100.00;98228.34;4354957;32;20233;-68
2022/11/16 00:38:34;;;;;;;36.13;14.27;;;;;;;6.25;100.00;98201.84;4364459;32;20043;-71
2022/11/16 00:41:00;;;;;;;36.13;13.15;;;;;;;6.66;100.00;98231.13;4363144;32;20031;-69
2022/11/16 00:43:27;;;;;;;51.00;14.45;;;;;;;6.69;100.00;98230.63;4355725;32;20118;-70
2022/11/16 00:49:54;;;;;;;42.25;13.62;;;;;;;6.85;100.00;98239.72;4394970;32;20249;-70
2022/11/16 00:52:20;;;;;;;45.78;15.05;;;;;;;6.99;100.00;98191.97;4369949;32;20039;-70
2022/11/16 00:54:53;;;;;;;34.13;13.00;;;;;;;6.81;100.00;98191.22;4389257;32;20027;-70
2022/11/16 00:57:20;;;;;;;53.63;15.13;;;;;;;7.23;100.00;98225.53;4396397;32;20039;-70
2022/11/16 00:59:46;;;;;;;77.15;16.25;;;;;;;6.33;100.00;98083.81;4390371;32;20884;-70
2022/11/16 01:02:13;;;;;;;49.90;15.10;;;;;;;6.84;100.00;98206.78;4388279;32;20039;-70
2022/11/16 01:04:40;;;;;;;38.90;13.45;;;;;;;6.84;100.00;98189.91;4390486;32;20114;-70
2022/11/16 01:07:07;;;;;;;46.10;12.95;;;;;;;6.96;100.00;98208.56;4400042;32;20155;-70
2022/11/16 01:09:33;;;;;;;44.13;13.82;;;;;;;6.99;100.00;98219.59;4381637;32;20095;-70
2022/11/16 01:12:09;;;;;;;46.83;12.82;;;;;;;6.91;100.00;98179.84;4377858;32;20063;-70
2022/11/16 01:14:39;;;;;;;38.53;13.55;;;;;;;7.07;100.00;98219.16;4377393;32;20392;-70
2022/11/16 01:17:06;;;;;;;51.35;11.80;;;;;;;7.08;100.00;98211.94;4378333;32;20073;-71
2022/11/16 01:19:33;;;;;;;67.50;13.05;;;;;;;7.07;100.00;98205.78;4340528;32;20123;-70
2022/11/16 01:22:00;;;;;;;30.55;11.48;;;;;;;6.84;100.00;98163.97;4354778;32;20395;-70
2022/11/16 01:24:27;;;;;;;38.90;13.02;;;;;;;7.03;100.00;98198.47;4354440;32;20119;-70
2022/11/16 01:26:56;;;;;;;49.65;11.23;;;;;;;7.09;100.00;98197.50;4348886;32;20056;-70
2022/11/16 01:29:28;;;;;;;41.13;11.40;;;;;;;6.89;100.00;98173.91;4335746;33;20066;-70
2022/11/16 01:31:56;;;;;;;45.45;12.93;;;;;;;7.15;100.00;98223.28;4337889;33;20048;-70
2022/11/16 01:34:23;;;;;;;43.10;10.30;;;;;;;6.80;100.00;98191.47;4338904;33;20032;-70
2022/11/16 01:36:50;;;;;;;45.92;13.43;;;;;;;6.89;100.00;98204.19;4339451;33;20069;-70
2022/11/16 01:39:17;;;;;;;52.08;15.15;;;;;;;6.98;100.00;98195.75;4337802;33;20028;-70
2022/11/16 01:41:44;;;;;;;48.40;14.07;;;;;;;6.94;100.00;98194.59;4380677;32;20043;-70
2022/11/16 01:44:13;;;;;;;51.75;14.85;;;;;;;6.71;100.00;98177.69;4382989;32;20065;-70
2022/11/16 01:46:41;;;;;;;46.75;14.40;;;;;;;6.96;100.00;98187.16;4344215;32;20080;-70
2022/11/16 01:49:13;;;;;;;40.67;12.52;;;;;;;6.80;100.00;98144.13;4343781;32;20036;-70
2022/11/16 01:51:43;;;;;;;34.67;12.27;;;;;;;7.06;100.00;98192.63;4371629;32;20067;-70
2022/11/16 01:54:12;;;;;;;55.30;13.85;;;;;;;6.99;100.00;98146.47;4382955;32;20024;-70
2022/11/16 01:56:42;;;;;;;48.22;12.52;;;;;;;6.83;100.00;98167.72;4383744;32;20061;-71
2022/11/16 01:59:10;;;;;;;43.38;11.25;;;;;;;7.16;100.00;98184.72;4384086;32;20034;-70
2022/11/16 02:01:37;;;;;;;35.45;11.15;;;;;;;7.00;100.00;98140.09;4398953;32;20080;-70
2022/11/16 02:04:04;;;;;;;42.15;13.57;;;;;;;7.30;100.00;98181.69;4399157;32;20061;-69
2022/11/16 02:07:02;;;;;;;44.55;11.95;;;;;;;7.04;100.00;98134.00;4398838;32;20497;-69
2022/11/16 02:09:54;;;;;;;70.87;14.27;;;;;;;7.11;100.00;98131.13;4368843;32;20035;-69
2022/11/16 02:12:39;;;;;;;96.18;15.13;;;;;;;6.72;100.00;98112.44;4363670;32;20086;-69
2022/11/16 02:15:06;;;;;;;54.10;12.43;;;;;;;6.72;100.00;98113.25;4356481;32;20061;-69
2022/11/16 02:17:51;;;;;;;79.37;12.65;;;;;;;6.82;100.00;98155.38;4374182;32;20061;-69
2022/11/16 02:20:38;;;;;;;36.25;10.63;;;;;;;6.95;100.00;98164.13;4397764;32;20060;-70
2022/11/16 02:23:20;;;;;;;32.55;11.38;;;;;;;6.76;100.00;98118.91;4398919;32;20138;-69
2022/11/16 02:26:13;;;;;;;49.08;12.00;;;;;;;6.94;100.00;98108.97;4397475;32;20042;-69
2022/11/16 02:29:00;;;;;;;74.68;13.45;;;;;;;7.16;100.00;98146.44;4398752;32;20046;-69
2022/11/16 02:31:33;;;;;;;42.03;10.43;;;;;;;7.07;100.00;98138.06;4398179;32;20068;-69
2022/11/16 02:34:00;;;;;;;39.53;10.82;;;;;;;7.15;100.00;98142.13;4398578;32;20346;-69
2022/11/16 02:36:26;;;;;;;34.65;11.05;;;;;;;6.81;100.00;98102.94;4398678;32;20413;-69
2022/11/16 02:39:00;;;;;;;45.38;12.13;;;;;;;7.17;100.00;98146.19;4396659;32;20061;-69
2022/11/16 02:41:31;;;;;;;35.28;9.45;;;;;;;6.78;100.00;98095.41;4418785;32;20042;-69
2022/11/16 02:44:11;;;;;;;51.53;13.98;;;;;;;6.51;100.00;98064.00;4420908;32;20042;-69
2022/11/16 02:46:43;;;;;;;50.40;12.65;;;;;;;6.46;100.00;98125.44;4412603;32;20061;-69
2022/11/16 02:49:16;;;;;;;40.37;10.33;;;;;;;6.68;100.00;98085.34;4413471;32;20056;-70
2022/11/16 02:51:45;;;;;;;39.22;12.13;;;;;;;6.93;100.00;98140.28;4413761;32;20112;-70
2022/11/16 02:54:20;;;;;;;34.22;12.20;;;;;;;6.92;100.00;98127.94;4410773;32;20048;-69
2022/11/16 02:57:01;;;;;;;44.22;10.23;;;;;;;6.93;100.00;98128.78;4413806;32;20035;-69
2022/11/16 02:59:43;;;;;;;62.72;12.85;;;;;;;6.69;100.00;98086.19;4411933;32;20046;-69
2022/11/16 03:02:18;;;;;;;38.58;11.52;;;;;;;7.12;100.00;98130.06;4412586;32;20026;-70
2022/11/16 03:04:48;;;;;;;55.72;13.57;;;;;;;7.07;100.00;98124.66;4412489;32;20395;-69
2022/11/16 03:07:29;;;;;;;45.60;15.13;;;;;;;7.06;100.00;98104.31;4406245;32;20047;-70
2022/11/16 03:09:56;;;;;;;41.63;15.40;;;;;;;6.64;100.00;98104.84;4410226;32;20050;-70
2022/11/16 03:12:29;;;;;;;38.53;12.52;;;;;;;6.81;100.00;98100.25;4411640;32;20047;-71
2022/11/16 03:15:03;;;;;;;41.37;12.80;;;;;;;6.91;100.00;98062.91;4380583;32;20098;-69
2022/11/16 03:17:37;;;;;;;37.50;12.07;;;;;;;6.93;100.00;98108.16;4377875;32;20054;-69
2022/11/16 03:20:19;;;;;;;36.97;12.82;;;;;;;6.82;100.00;98053.69;4373583;32;20043;-69
2022/11/16 03:22:49;;;;;;;31.87;12.37;;;;;;;7.10;100.00;98070.63;4373242;32;20055;-69
2022/11/16 03:25:19;;;;;;;31.20;10.70;;;;;;;6.83;100.00;98079.41;4352289;33;20059;-68
2022/11/16 03:28:18;;;;;;;31.80;12.65;;;;;;;6.91;100.00;98105.72;4352394;33;20032;-70
2022/11/16 03:31:01;;;;;;;23.50;9.95;;;;;;;7.02;100.00;98116.53;4351964;33;20900;-70
2022/11/16 03:33:33;;;;;;;35.42;12.07;;;;;;;6.70;100.00;98106.50;4352987;33;20028;-70
2022/11/16 03:36:10;;;;;;;27.70;10.85;;;;;;;6.53;100.00;98115.38;4354594;32;20035;-70
2022/11/16 03:38:40;;;;;;;35.47;12.52;;;;;;;6.66;100.00;98105.41;4357678;32;20101;-70
2022/11/16 03:41:09;;;;;;;32.92;11.43;;;;;;;6.69;100.00;98102.22;4365676;32;20046;-70
2022/11/16 03:43:39;;;;;;;21.58;9.18;;;;;;;6.89;100.00;98102.50;4352908;33;20066;-70
2022/11/16 03:46:06;;;;;;;25.20;10.57;;;;;;;6.84;100.00;98105.09;4367749;32;20061;-70
2022/11/16 03:48:34;;;;;;;22.62;9.73;;;;;;;6.68;100.00;98073.84;4374167;32;20073;-70
2022/11/16 03:51:02;;;;;;;22.13;7.12;;;;;;;6.45;100.00;98022.22;4367790;32;20097;-70
2022/11/16 03:53:29;;;;;;;21.10;8.15;;;;;;;6.73;100.00;98108.69;4367921;32;20342;-70
2022/11/16 03:55:55;;;;;;;21.83;8.85;;;;;;;6.80;100.00;98109.34;4380796;32;20404;-70
2022/11/16 03:58:22;;;;;;;21.17;8.57;;;;;;;6.88;100.00;98106.22;4415268;32;20851;-70
2022/11/16 04:00:49;;;;;;;28.08;10.43;;;;;;;6.71;100.00;98073.34;4414407;32;20088;-70
2022/11/16 04:03:16;;;;;;;22.73;8.65;;;;;;;6.47;100.00;98062.88;4395446;32;20061;-70
2022/11/16 04:25:24;;;;;;;29.92;10.02;;;;;;;6.46;100.00;98042.56;4400211;32;20116;-69
2022/11/16 04:28:13;;;;;;;23.67;8.27;;;;;;;6.99;100.00;98084.94;4398099;32;20056;-69
2022/11/16 04:39:14;;;;;;;20.75;7.35;;;;;;;6.58;100.00;98073.72;4425003;32;20097;-69
2022/11/16 04:47:05;;;;;;;23.48;10.55;;;;;;;6.95;100.00;98075.78;4430080;32;20056;-70
2022/11/16 04:47:14;;;;;;;29.67;10.82;;;;;;;6.57;100.00;98064.06;4426350;32;20118;-70
2022/11/16 04:49:40;;;;;;;20.77;9.05;;;;;;;6.22;100.00;97985.00;4424946;32;20042;-70
2022/11/16 04:52:07;;;;;;;25.67;10.13;;;;;;;6.96;100.00;98080.09;4421193;32;20038;-70
2022/11/16 04:54:34;;;;;;;24.85;9.48;;;;;;;7.06;100.00;98080.22;4427681;32;20457;-69
2022/11/16 04:57:02;;;;;;;26.02;9.13;;;;;;;6.96;100.00;98053.34;4432777;32;20103;-70
2022/11/16 04:59:28;;;;;;;23.85;7.65;;;;;;;7.32;100.00;98077.81;4432369;32;20046;-69
2022/11/16 05:02:07;;;;;;;19.80;7.87;;;;;;;7.19;100.00;98085.16;4421271;32;20056;-69
2022/11/16 05:04:36;;;;;;;17.30;7.65;;;;;;;7.12;100.00;98089.91;4416872;32;20034;-69
2022/11/16 05:07:03;;;;;;;27.02;8.55;;;;;;;6.90;100.00;98077.34;4417084;32;20082;-69
2022/11/16 05:09:29;;;;;;;26.83;8.32;;;;;;;6.90;100.00;98076.53;4422475;32;20401;-69
2022/11/16 05:11:56;;;;;;;25.80;7.82;;;;;;;7.04;100.00;98085.00;4421235;32;20084;-70
2022/11/16 05:14:23;;;;;;;23.42;9.25;;;;;;;6.95;100.00;98094.53;4423924;32;20106;-69
2022/11/16 05:16:49;;;;;;;22.77;9.32;;;;;;;6.73;100.00;97996.31;4421185;32;20385;-69
2022/11/16 05:22:01;;;;;;;22.00;8.07;;;;;;;7.34;100.00;98081.88;4416765;32;20116;-69
2022/11/16 05:24:34;;;;;;;22.90;8.40;;;;;;;6.82;100.00;98015.44;4419536;32;20075;-69
2022/11/16 05:27:08;;;;;;;29.95;10.82;;;;;;;7.18;100.00;98072.84;4424357;32;20038;-69
2022/11/16 05:29:36;;;;;;;22.58;8.00;;;;;;;7.28;100.00;98082.88;4426834;32;20049;-70
2022/11/16 05:32:04;;;;;;;21.67;8.77;;;;;;;7.35;100.00;98070.06;4425061;32;20392;-70
2022/11/16 05:34:31;;;;;;;16.90;7.78;;;;;;;6.96;100.00;98064.03;4431701;32;20042;-70
2022/11/16 05:36:59;;;;;;;23.20;8.70;;;;;;;7.01;100.00;98072.13;4432150;32;20387;-69
2022/11/16 05:39:26;;;;;;;17.45;8.00;;;;;;;6.95;100.00;98030.31;4429996;32;20097;-69
2022/11/16 05:41:53;;;;;;;23.40;7.78;;;;;;;6.86;100.00;98073.56;4417323;32;20055;-69
2022/11/16 05:44:20;;;;;;;16.35;9.00;;;;;;;6.77;100.00;98029.56;4416058;32;20080;-69
2022/11/16 05:46:47;;;;;;;23.27;9.38;;;;;;;6.95;100.00;98031.09;4416170;32;20482;-70
2022/11/16 05:49:15;;;;;;;17.27;8.85;;;;;;;6.95;100.00;98025.75;4416009;32;20440;-69
2022/11/16 05:51:44;;;;;;;18.67;9.70;;;;;;;7.28;100.00;98067.59;4420735;32;20085;-70
2022/11/16 05:54:19;;;;;;;23.45;8.23;;;;;;;7.36;100.00;98065.53;4424548;32;20070;-70
2022/11/16 05:56:48;;;;;;;28.58;10.13;;;;;;;7.41;100.00;98049.53;4425349;32;20083;-69
2022/11/16 05:59:17;;;;;;;16.92;8.10;;;;;;;6.88;100.00;98020.59;4429085;32;20050;-69
2022/11/16 06:01:44;;;;;;;19.90;8.30;;;;;;;7.16;100.00;98069.59;4428503;32;20385;-69
2022/11/16 06:04:12;;;;;;;22.42;7.95;;;;;;;6.78;100.00;98025.84;4431552;32;20372;-69
2022/11/16 06:06:39;;;;;;;14.55;7.37;;;;;;;6.95;100.00;98057.06;4431317;32;20038;-69
2022/11/16 06:09:07;;;;;;;24.05;9.07;;;;;;;6.88;100.00;98042.00;4431554;32;20332;-69
2022/11/16 06:11:36;;;;;;;21.75;8.82;;;;;;;6.71;100.00;98014.50;4428654;32;20397;-69
2022/11/16 06:14:04;;;;;;;19.12;7.22;;;;;;;6.79;100.00;98014.06;4430727;32;20053;-70
2022/11/16 06:16:31;;;;;;;17.08;6.00;;;;;;;7.05;100.00;98049.13;4425308;32;20046;-70
2022/11/16 06:18:59;;;;;;;16.90;7.75;;;;;;;6.68;100.00;98052.44;4430953;32;20068;-69
2022/11/16 06:21:25;;;;;;;16.98;7.53;;;;;;;6.48;100.00;98011.00;4422225;32;20042;-69
2022/11/16 06:23:52;;;;;;;18.17;7.95;;;;;;;6.62;100.00;98010.63;4414257;32;20105;-69
2022/11/16 06:26:19;;;;;;;17.92;7.35;;;;;;;6.52;100.00;97996.06;4415494;32;20068;-68
2022/11/16 06:28:46;;;;;;;19.50;7.22;;;;;;;6.65;100.00;98008.28;4395489;32;20070;-68
2022/11/16 06:31:12;;;;;;;21.48;8.38;;;;;;;6.81;100.00;98022.66;4398037;32;20070;-69
2022/11/16 06:33:39;;;;;;;21.05;7.35;;;;;;;7.02;100.00;98037.09;4396627;32;20043;-70
2022/11/16 06:36:07;;;;;;;15.63;7.68;;;;;;;6.94;100.00;98004.59;4367740;32;20055;-70
2022/11/16 06:38:35;;;;;;;13.35;5.95;;;;;;;7.07;100.00;98029.09;4368209;32;20043;-69
2022/11/16 06:41:02;;;;;;;16.37;8.18;;;;;;;6.54;100.00;97969.91;4367532;32;20105;-69
2022/11/16 06:43:29;;;;;;;27.65;8.98;;;;;;;6.84;100.00;98030.16;4366987;32;20135;-69
2022/11/16 06:45:57;;;;;;;18.60;8.15;;;;;;;6.38;100.00;98034.94;4365731;32;20159;-69
2022/11/16 06:48:24;;;;;;;21.08;8.55;;;;;;;6.70;100.00;98039.63;4366481;32;20949;-70
2022/11/16 06:50:51;;;;;;;22.15;8.18;;;;;;;6.75;100.00;98047.75;4366404;32;20094;-73
2022/11/16 06:53:19;;;;;;;19.23;8.20;;;;;;;6.68;100.00;98053.25;4365159;32;20414;-73
2022/11/16 06:55:46;;;;;;;12.77;6.18;;;;;;;6.38;100.00;98016.22;4362836;32;20454;-74
2022/11/16 06:58:13;;;;;;;19.65;7.50;;;;;;;6.30;100.00;98035.34;4366043;32;20183;-75
2022/11/16 07:00:40;;;;;;;14.48;6.37;;;;;;;6.45;100.00;98037.44;4373383;32;20163;-74
2022/11/16 07:03:08;;;;;;;13.52;5.65;;;;;;;6.37;100.00;97998.56;4382248;32;20056;-74
2022/11/16 07:05:39;;;;;;;15.40;6.57;;;;;;;6.39;100.00;98020.50;4379391;32;20056;-75
2022/11/16 07:08:07;;;;;;;13.57;6.05;;;;;;;6.45;100.00;98000.81;4379097;32;20380;-74
2022/11/16 07:10:36;;;;;;;12.82;6.47;;;;;;;6.71;100.00;98026.00;4382666;32;20040;-74
2022/11/16 07:13:03;;;;;;;12.82;5.72;;;;;;;6.08;100.00;97926.56;4379217;32;20038;-73
2022/11/16 07:15:31;;;;;;;16.87;8.10;;;;;;;6.47;100.00;98022.75;4377133;32;20053;-74
2022/11/16 07:18:05;;;;;;;11.75;5.07;;;;;;;6.04;100.00;97925.44;4337010;33;20063;-73
2022/11/16 07:20:33;;;;;;;20.02;6.97;;;;;;;6.57;100.00;98018.59;4336136;33;20496;-74
2022/11/16 07:23:03;;;;;;;15.10;6.55;;;;;;;6.39;100.00;97991.09;4336733;33;20084;-73
2022/11/16 07:25:31;;;;;;;11.57;6.00;;;;;;;6.65;100.00;98016.31;4334031;33;20102;-75
2022/11/16 07:27:58;;;;;;;17.35;7.00;;;;;;;6.60;100.00;98042.97;4379905;32;20200;-74
2022/11/16 07:30:25;;;;;;;12.40;6.18;;;;;;;6.54;100.00;98026.06;4376314;32;20031;-73
2022/11/16 07:32:57;;;;;;;12.40;5.93;;;;;;;6.70;100.00;98036.94;4377964;32;20075;-74
2022/11/16 07:35:24;;;;;;;16.50;6.20;;;;;;;6.24;100.00;97982.88;4377600;32;20060;-74
2022/11/16 07:37:51;;;;;;;15.50;6.07;;;;;;;6.29;100.00;97975.75;4379666;32;20364;-74
2022/11/16 07:40:18;;;;;;;13.57;6.10;;;;;;;6.73;100.00;98017.72;4348440;33;20139;-75
2022/11/16 07:42:45;;;;;;;11.80;6.15;;;;;;;6.95;100.00;98030.31;4346725;33;20073;-74
2022/11/16 07:45:13;;;;;;;10.98;6.12;;;;;;;7.03;100.00;98025.28;4349959;33;20048;-74
2022/11/16 07:47:40;;;;;;;13.25;8.02;;;;;;;7.00;100.00;98025.78;4348710;33;20073;-75
2022/11/16 07:50:07;;;;;;;4.75;3.40;;;;;;;6.69;100.00;98011.28;4385116;32;20077;-73
2022/11/16 07:52:34;;;;;;;15.32;6.80;;;;;;;6.43;100.00;97976.19;4386996;32;20100;-75
2022/11/16 07:55:01;;;;;;;13.85;7.87;;;;;;;6.95;100.00;98024.94;4389620;32;20518;-74
2022/11/16 07:57:28;;;;;;;17.92;8.80;;;;;;;7.02;100.00;98028.22;4388909;32;20079;-74
2022/11/16 07:59:55;;;;;;;18.10;8.10;;;;;;;6.73;100.00;98039.12;4388572;32;20104;-73
2022/11/16 08:02:22;;;;;;;14.93;7.68;;;;;;;6.82;100.00;97994.84;4389428;32;20080;-74
2022/11/16 08:04:49;;;;;;;16.27;8.15;;;;;;;6.99;100.00;98034.06;4391930;32;20062;-74
2022/11/16 08:07:18;;;;;;;13.40;7.12;;;;;;;6.54;100.00;98028.75;4389332;32;20158;-74
2022/11/16 08:09:45;;;;;;;15.93;8.30;;;;;;;6.80;100.00;97991.59;4387994;32;20082;-74
2022/11/16 08:12:13;;;;;;;18.15;7.87;;;;;;;7.05;100.00;98030.41;4418973;32;20356;-75
2022/11/16 08:14:46;;;;;;;18.42;8.02;;;;;;;6.79;100.00;97963.22;4403102;32;20045;-73
2022/11/16 08:17:13;;;;;;;16.42;7.43;;;;;;;7.01;100.00;98007.88;4404231;32;20346;-76
2022/11/16 08:19:41;;;;;;;17.42;8.88;;;;;;;7.17;100.00;98023.03;4407435;32;20046;-75
2022/11/16 08:22:09;;;;;;;22.65;7.15;;;;;;;6.50;100.00;98024.12;4410186;32;20043;-75
2022/11/16 08:24:38;;;;;;;13.45;7.22;;;;;;;6.79;100.00;98030.09;4396051;32;20034;-75
2022/11/16 08:27:04;;;;;;;11.38;6.35;;;;;;;7.11;100.00;98020.56;4398852;32;20173;-75
2022/11/16 08:29:31;;;;;;;16.52;6.95;;;;;;;6.46;100.00;97938.25;4397904;32;20097;-74
2022/11/16 08:31:58;;;;;;;16.67;7.03;;;;;;;6.82;100.00;98026.94;4400001;32;20072;-74
2022/11/16 08:34:25;;;;;;;14.65;7.62;;;;;;;6.98;100.00;98021.78;4389469;32;20073;-74
2022/11/16 08:36:52;;;;;;;16.33;7.28;;;;;;;6.22;100.00;97939.56;4381266;32;20090;-73
2022/11/16 08:39:20;;;;;;;16.45;8.45;;;;;;;7.04;100.00;98012.75;4384871;32;20055;-74
2022/11/16 08:41:47;;;;;;;18.10;7.97;;;;;;;6.66;100.00;97979.66;4394420;32;20082;-74
2022/11/16 08:44:14;;;;;;;14.68;7.53;;;;;;;7.01;100.00;98002.53;4396427;32;20329;-73
2022/11/16 08:46:42;;;;;;;15.95;7.07;;;;;;;6.76;100.00;97977.09;4368967;32;20390;-74
2022/11/16 08:49:09;;;;;;;15.02;7.37;;;;;;;5.92;100.00;97884.63;4366795;32;20032;-74
2022/11/16 08:51:36;;;;;;;12.45;6.80;;;;;;;7.09;100.00;98015.47;4367639;32;20456;-73
2022/11/16 08:54:04;;;;;;;13.98;7.93;;;;;;;6.66;100.00;97964.41;4376040;32;20044;-73
2022/11/16 08:56:31;;;;;;;15.80;8.18;;;;;;;6.32;100.00;97993.16;4381520;32;20035;-73
2022/11/16 08:58:58;;;;;;;13.82;6.65;;;;;;;6.46;100.00;98023.84;4381510;32;20072;-74
2022/11/16 09:01:27;;;;;;;19.08;8.18;;;;;;;6.48;100.00;97983.47;4381056;32;20047;-74
2022/11/16 09:04:00;;;;;;;16.85;9.82;;;;;;;6.48;100.00;97983.47;4369544;32;20020;-74
2022/11/16 09:06:30;;;;;;;12.40;6.28;;;;;;;6.49;100.00;98006.47;4367319;32;20061;-73
2022/11/16 09:08:57;;;;;;;13.88;7.43;;;;;;;6.57;100.00;97965.13;4367494;32;20381;-73
2022/11/16 09:11:24;;;;;;;15.77;7.75;;;;;;;6.96;100.00;98021.22;4370404;32;20958;-72
2022/11/16 09:13:53;;;;;;;15.57;7.32;;;;;;;7.31;100.00;98028.81;4372947;32;20078;-73
2022/11/16 09:16:20;;;;;;;12.65;7.18;;;;;;;6.78;100.00;97972.31;4370835;32;20050;-72
2022/11/16 09:18:49;;;;;;;14.07;6.70;;;;;;;6.37;100.00;98014.63;4369646;32;20032;-72
2022/11/16 09:21:21;;;;;;;15.75;7.60;;;;;;;7.11;100.00;98018.69;4370622;32;20045;-73
2022/11/16 09:23:48;;;;;;;12.70;6.93;;;;;;;7.10;100.00;98022.44;4383165;32;20042;-75
2022/11/16 09:26:17;;;;;;;9.90;5.80;;;;;;;7.20;100.00;98013.72;4398107;32;20097;-72
2022/11/16 09:28:47;;;;;;;13.70;6.62;;;;;;;7.08;100.00;98021.88;4397985;32;20074;-74
2022/11/16 09:31:15;;;;;;;13.45;7.20;;;;;;;6.72;100.00;98016.12;4397212;32;20069;-72
2022/11/16 09:33:41;;;;;;;12.15;6.47;;;;;;;7.05;100.00;98025.03;4398717;32;20393;-74
2022/11/16 09:36:08;;;;;;;16.58;7.35;;;;;;;7.26;100.00;98021.53;4430539;32;20086;-72
2022/11/16 09:38:40;;;;;;;11.50;6.78;;;;;;;7.36;100.00;98020.81;4431793;32;20038;-72
2022/11/16 09:41:15;;;;;;;12.70;6.35;;;;;;;7.23;100.00;98016.69;4428382;32;20062;-72
2022/11/16 09:43:57;;;;;;;10.30;5.90;;;;;;;7.46;100.00;98014.75;4431461;32;20095;-73
2022/11/16 09:46:36;;;;;;;10.65;6.37;;;;;;;7.01;100.00;97976.56;4430828;32;20037;-73
2022/11/16 09:49:11;;;;;;;12.60;6.65;;;;;;;6.75;100.00;97970.16;4431640;32;20100;-74
2022/11/16 09:51:40;;;;;;;15.07;7.00;;;;;;;7.02;100.00;97970.16;4431534;32;20464;-74
2022/11/16 09:54:13;;;;;;;13.45;6.20;;;;;;;7.17;100.00;98006.97;4412879;32;20120;-72
2022/11/16 09:56:42;;;;;;;12.68;5.03;;;;;;;7.24;100.00;98007.59;4412153;32;20457;-73
2022/11/16 09:59:24;;;;;;;13.07;7.00;;;;;;;6.97;100.00;97958.59;4404623;32;20051;-72
2022/11/16 10:02:04;;;;;;;14.80;6.82;;;;;;;7.11;100.00;98002.63;4404315;32;20055;-72
2022/11/16 10:04:42;;;;;;;12.93;7.10;;;;;;;7.38;100.00;97991.13;4404452;32;20069;-72
2022/11/16 10:07:44;;;;;;;14.73;7.55;;;;;;;7.19;100.00;97988.78;4403741;32;20057;-72
2022/11/16 10:10:13;;;;;;;16.48;6.85;;;;;;;7.41;100.00;98001.31;4405939;32;20045;-73
2022/11/16 10:12:44;;;;;;;15.50;7.05;;;;;;;7.15;100.00;97982.34;4405618;32;20802;-74
2022/11/16 10:15:52;;;;;;;16.27;7.25;;;;;;;7.24;100.00;97988.84;4373593;32;20204;-72
2022/11/16 10:18:35;;;;;;;11.80;6.50;;;;;;;7.19;100.00;97988.78;4354551;32;20445;-72
2022/11/16 10:21:07;;;;;;;15.50;6.57;;;;;;;6.73;100.00;97916.06;4359869;32;20047;-73
2022/11/16 10:23:44;;;;;;;14.27;6.25;;;;;;;7.33;100.00;97983.84;4360497;32;20040;-74
2022/11/16 10:26:16;;;;;;;16.12;6.55;;;;;;;7.27;100.00;97966.94;4359092;32;20053;-74
2022/11/16 10:29:26;;;;;;;14.77;6.40;;;;;;;7.05;100.00;97939.41;4359144;32;21521;-73
2022/11/16 10:32:12;;;;;;;11.05;6.10;;;;;;;7.05;100.00;97967.00;4364847;32;20105;-72
2022/11/16 10:34:55;;;;;;;9.55;4.95;;;;;;;7.18;100.00;97976.47;4346361;32;20063;-72
2022/11/16 10:37:29;;;;;;;13.00;6.05;;;;;;;6.89;100.00;97941.94;4344575;32;20056;-75
2022/11/16 10:39:57;;;;;;;10.98;6.18;;;;;;;6.83;100.00;97934.91;4347089;32;20061;-74
2022/11/16 10:42:38;;;;;;;9.77;4.45;;;;;;;7.17;100.00;97969.50;4344808;32;20047;-75
2022/11/16 10:45:20;;;;;;;8.67;4.70;;;;;;;7.03;100.00;97962.94;4349076;32;20052;-75
2022/11/16 10:47:59;;;;;;;8.80;4.78;;;;;;;6.59;100.00;97930.91;4367727;32;20139;-74
2022/11/16 10:50:31;;;;;;;7.22;4.37;;;;;;;6.91;100.00;97961.22;4380372;32;20039;-74
2022/11/16 10:52:59;;;;;;;11.02;5.10;;;;;;;6.98;100.00;97965.56;4396887;32;20062;-76
2022/11/16 11:01:56;;;;;;;12.37;5.10;;;;;;;6.80;100.00;97964.06;5035535;28;20041;31
2022/11/16 11:04:28;;;;;;;9.48;5.10;;;;;;;6.91;100.00;97950.50;4237867;33;20079;-76
2022/11/16 11:07:21;;;;;;;14.60;7.30;;;;;;;7.17;100.00;97958.78;4245418;33;20050;-75
2022/11/16 11:13:11;;;;;;;8.20;4.45;;;;;;;7.41;100.00;97961.94;4867021;28;20034;-77
2022/11/16 11:18:41;;;;;;;10.18;5.45;;;;;;;7.31;100.00;97953.00;4828356;28;20043;-78
2022/11/16 11:21:14;;;;;;;9.52;4.37;;;;;;;6.97;100.00;97915.78;4243110;33;20062;-77
2022/11/16 11:23:52;;;;;;;8.00;4.40;;;;;;;6.85;100.00;97929.31;4236501;33;20052;-79
2022/11/16 11:26:40;;;;;;;9.93;5.10;;;;;;;6.87;100.00;97946.72;4263144;28;20054;-79
2022/11/16 11:29:18;;;;;;;8.18;4.22;;;;;;;6.87;100.00;97953.94;4279870;28;20050;-69
2022/11/16 11:31:48;;;;;;;7.78;3.92;;;;;;;6.65;100.00;97967.34;4251144;33;20098;-69
2022/11/16 11:34:19;;;;;;;5.25;3.33;;;;;;;6.86;100.00;97957.66;4316717;28;20079;-69
2022/11/16 11:36:52;;;;;;;7.12;4.62;;;;;;;6.32;100.00;97931.69;4297749;28;20045;-68
2022/11/16 11:39:18;;;;;;;6.97;3.95;;;;;;;6.69;100.00;97958.56;4267592;33;20049;-69
2022/11/16 11:42:00;;;;;;;6.10;3.85;;;;;;;6.52;100.00;97926.53;4253698;33;20071;-70
2022/11/16 11:44:53;;;;;;;8.57;4.57;;;;;;;6.51;100.00;97924.12;4239324;33;20088;-68
2022/11/16 11:47:52;;;;;;;8.10;4.75;;;;;;;6.65;100.00;97945.94;4239103;33;20054;-69
2022/11/16 11:50:20;;;;;;;7.50;4.20;;;;;;;6.34;100.00;97940.25;4246370;33;20072;-69
2022/11/16 11:52:59;;;;;;;11.52;4.93;;;;;;;6.28;100.00;97949.25;4254088;33;20045;-70
2022/11/16 11:55:26;;;;;;;7.90;5.00;;;;;;;6.31;100.00;97948.75;4245270;33;20384;-70
2022/11/16 11:58:00;;;;;;;7.55;3.78;;;;;;;6.52;100.00;97961.31;4233588;33;20080;-69
2022/11/16 12:03:39;;;;;;;4.20;3.78;;;;;;;6.40;100.00;97947.28;4203772;34;20118;-69
2022/11/16 12:06:09;;;;;;;7.15;3.92;;;;;;;6.29;100.00;97943.66;4207029;34;20068;-71
2022/11/16 12:09:05;;;;;;;6.55;3.83;;;;;;;6.22;100.00;97942.22;4187740;34;20096;-70
2022/11/16 12:11:41;;;;;;;5.68;3.05;;;;;;;6.13;100.00;97945.31;4170666;34;20235;-71
2022/11/16 12:14:25;;;;;;;6.80;3.05;;;;;;;5.89;100.00;97943.87;4183962;34;20079;-70
2022/11/16 12:17:01;;;;;;;4.43;3.22;;;;;;;6.08;100.00;97947.94;4195810;34;20047;-72
2022/11/16 12:20:08;;;;;;;7.97;4.18;;;;;;;6.07;100.00;97943.63;4197403;34;20051;-71
2022/11/16 12:22:49;;;;;;;6.55;3.45;;;;;;;6.07;100.00;97946.31;4195161;34;20047;-72
2022/11/16 12:25:42;;;;;;;5.68;3.28;;;;;;;6.05;100.00;97952.94;4188837;34;20091;-73
2022/11/16 12:28:27;;;;;;;6.45;3.67;;;;;;;6.27;100.00;97944.97;4197285;34;20047;-73
2022/11/16 12:31:18;;;;;;;6.50;4.07;;;;;;;6.32;100.00;97945.03;4190146;34;20077;-73
2022/11/16 12:33:55;;;;;;;7.15;3.65;;;;;;;6.20;100.00;97922.97;4192152;34;20069;-72
2022/11/16 12:36:54;;;;;;;6.55;3.33;;;;;;;6.27;100.00;97923.56;4195913;34;20065;-73
2022/11/16 12:39:33;;;;;;;3.87;2.62;;;;;;;6.24;100.00;97913.37;4209694;34;20450;-72